sensor_id;sensor_type;location;lat;lon;timestamp;P1;durP1;ratioP1;P2;durP2;ratioP2
47481;SDS011;33219;47.410;9.730;2022-08-19T00:01:25;5.03;;;2.90;;
47481;SDS011;33219;47.410;9.730;2022-08-19T00:03:55;3.80;;;2.72;;
47481;SDS011;33219;47.410;9.730;2022-08-19T00:06:23;4.25;;;2.80;;
47481;SDS011;33219;47.410;9.730;2022-08-19T00:08:52;3.80;;;3.20;;
47481;SDS011;33219;47.410;9.730;2022-08-19T00:11:21;5.97;;;3.75;;
47481;SDS011;33219;47.410;9.730;2022-08-19T00:13:48;7.10;;;5.67;;
47481;SDS011;33219;47.410;9.730;2022-08-19T00:16:19;11.60;;;7.20;;
47481;SDS011;33219;47.410;9.730;2022-08-19T00:18:47;9.98;;;7.67;;
47481;SDS011;33219;47.410;9.730;2022-08-19T00:21:15;10.72;;;8.20;;
47481;SDS011;33219;47.410;9.730;2022-08-19T00:23:43;10.85;;;8.48;;
47481;SDS011;33219;47.410;9.730;2022-08-19T00:26:11;13.93;;;9.85;;
47481;SDS011;33219;47.410;9.730;2022-08-19T00:28:40;15.10;;;10.82;;
47481;SDS011;33219;47.410;9.730;2022-08-19T00:31:08;15.70;;;11.22;;
47481;SDS011;33219;47.410;9.730;2022-08-19T00:33:36;18.25;;;12.50;;
47481;SDS011;33219;47.410;9.730;2022-08-19T00:36:05;21.40;;;14.38;;
47481;SDS011;33219;47.410;9.730;2022-08-19T00:38:34;17.75;;;12.63;;
47481;SDS011;33219;47.410;9.730;2022-08-19T00:41:03;20.37;;;14.23;;
47481;SDS011;33219;47.410;9.730;2022-08-19T00:43:32;28.52;;;18.98;;
47481;SDS011;33219;47.410;9.730;2022-08-19T00:46:00;38.58;;;23.73;;
47481;SDS011;33219;47.410;9.730;2022-08-19T00:48:30;46.75;;;26.68;;
47481;SDS011;33219;47.410;9.730;2022-08-19T00:50:59;51.70;;;27.90;;
47481;SDS011;33219;47.410;9.730;2022-08-19T00:53:27;54.80;;;27.62;;
47481;SDS011;33219;47.410;9.730;2022-08-19T00:55:59;54.15;;;26.33;;
47481;SDS011;33219;47.410;9.730;2022-08-19T00:58:30;49.05;;;26.35;;
47481;SDS011;33219;47.410;9.730;2022-08-19T01:01:01;56.98;;;27.42;;
47481;SDS011;33219;47.410;9.730;2022-08-19T01:03:30;53.10;;;27.20;;
47481;SDS011;33219;47.410;9.730;2022-08-19T01:05:57;64.75;;;29.42;;
47481;SDS011;33219;47.410;9.730;2022-08-19T01:08:25;56.68;;;28.85;;
47481;SDS011;33219;47.410;9.730;2022-08-19T01:10:54;53.92;;;29.60;;
47481;SDS011;33219;47.410;9.730;2022-08-19T01:13:25;55.20;;;30.37;;
47481;SDS011;33219;47.410;9.730;2022-08-19T01:16:05;58.52;;;31.12;;
47481;SDS011;33219;47.410;9.730;2022-08-19T01:18:38;65.47;;;32.80;;
47481;SDS011;33219;47.410;9.730;2022-08-19T01:21:09;62.95;;;31.62;;
47481;SDS011;33219;47.410;9.730;2022-08-19T01:23:40;72.00;;;33.92;;
47481;SDS011;33219;47.410;9.730;2022-08-19T01:28:41;62.40;;;32.17;;
47481;SDS011;33219;47.410;9.730;2022-08-19T01:31:12;57.83;;;30.30;;
47481;SDS011;33219;47.410;9.730;2022-08-19T01:33:41;62.67;;;31.12;;
47481;SDS011;33219;47.410;9.730;2022-08-19T01:36:10;62.48;;;30.82;;
47481;SDS011;33219;47.410;9.730;2022-08-19T01:38:40;58.33;;;29.05;;
47481;SDS011;33219;47.410;9.730;2022-08-19T01:41:10;52.80;;;27.27;;
47481;SDS011;33219;47.410;9.730;2022-08-19T01:43:38;50.08;;;26.57;;
47481;SDS011;33219;47.410;9.730;2022-08-19T01:46:06;46.28;;;24.50;;
47481;SDS011;33219;47.410;9.730;2022-08-19T01:48:35;48.17;;;25.37;;
47481;SDS011;33219;47.410;9.730;2022-08-19T01:51:04;46.00;;;24.77;;
47481;SDS011;33219;47.410;9.730;2022-08-19T01:53:34;38.08;;;22.85;;
47481;SDS011;33219;47.410;9.730;2022-08-19T01:56:02;35.55;;;21.37;;
47481;SDS011;33219;47.410;9.730;2022-08-19T01:58:32;37.78;;;22.45;;
47481;SDS011;33219;47.410;9.730;2022-08-19T02:01:03;25.37;;;15.08;;
47481;SDS011;33219;47.410;9.730;2022-08-19T02:03:32;28.57;;;17.62;;
47481;SDS011;33219;47.410;9.730;2022-08-19T02:06:02;27.93;;;17.07;;
47481;SDS011;33219;47.410;9.730;2022-08-19T02:08:31;28.35;;;17.50;;
47481;SDS011;33219;47.410;9.730;2022-08-19T02:11:01;28.77;;;18.27;;
47481;SDS011;33219;47.410;9.730;2022-08-19T02:13:30;29.50;;;17.85;;
47481;SDS011;33219;47.410;9.730;2022-08-19T02:15:59;31.77;;;19.35;;
47481;SDS011;33219;47.410;9.730;2022-08-19T02:18:27;30.08;;;19.60;;
47481;SDS011;33219;47.410;9.730;2022-08-19T02:20:54;32.98;;;19.67;;
47481;SDS011;33219;47.410;9.730;2022-08-19T02:23:22;32.75;;;21.77;;
47481;SDS011;33219;47.410;9.730;2022-08-19T02:25:49;31.85;;;21.12;;
47481;SDS011;33219;47.410;9.730;2022-08-19T02:28:18;31.30;;;22.73;;
47481;SDS011;33219;47.410;9.730;2022-08-19T02:30:46;38.48;;;22.37;;
47481;SDS011;33219;47.410;9.730;2022-08-19T02:33:14;29.75;;;20.60;;
47481;SDS011;33219;47.410;9.730;2022-08-19T02:35:43;27.10;;;20.35;;
47481;SDS011;33219;47.410;9.730;2022-08-19T02:38:12;26.07;;;19.12;;
47481;SDS011;33219;47.410;9.730;2022-08-19T02:40:54;29.12;;;20.72;;
47481;SDS011;33219;47.410;9.730;2022-08-19T02:43:27;28.47;;;20.32;;
47481;SDS011;33219;47.410;9.730;2022-08-19T02:45:55;27.98;;;19.92;;
47481;SDS011;33219;47.410;9.730;2022-08-19T02:48:24;26.90;;;19.87;;
47481;SDS011;33219;47.410;9.730;2022-08-19T02:50:52;26.75;;;19.98;;
47481;SDS011;33219;47.410;9.730;2022-08-19T02:53:24;27.20;;;19.98;;
47481;SDS011;33219;47.410;9.730;2022-08-19T02:55:53;26.30;;;18.67;;
47481;SDS011;33219;47.410;9.730;2022-08-19T02:58:21;21.52;;;17.70;;
47481;SDS011;33219;47.410;9.730;2022-08-19T03:00:51;24.12;;;18.35;;
47481;SDS011;33219;47.410;9.730;2022-08-19T03:03:21;24.73;;;18.93;;
47481;SDS011;33219;47.410;9.730;2022-08-19T03:05:49;22.93;;;17.10;;
47481;SDS011;33219;47.410;9.730;2022-08-19T03:08:16;22.75;;;17.35;;
47481;SDS011;33219;47.410;9.730;2022-08-19T03:10:45;21.50;;;17.07;;
47481;SDS011;33219;47.410;9.730;2022-08-19T03:13:15;22.15;;;17.25;;
47481;SDS011;33219;47.410;9.730;2022-08-19T03:15:45;20.65;;;15.23;;
47481;SDS011;33219;47.410;9.730;2022-08-19T03:18:14;18.90;;;15.35;;
47481;SDS011;33219;47.410;9.730;2022-08-19T03:20:43;20.02;;;16.40;;
47481;SDS011;33219;47.410;9.730;2022-08-19T03:23:13;17.10;;;14.93;;
47481;SDS011;33219;47.410;9.730;2022-08-19T03:25:42;22.40;;;16.00;;
47481;SDS011;33219;47.410;9.730;2022-08-19T03:28:11;20.35;;;15.28;;
47481;SDS011;33219;47.410;9.730;2022-08-19T03:30:41;16.05;;;13.90;;
47481;SDS011;33219;47.410;9.730;2022-08-19T03:33:11;17.85;;;14.75;;
47481;SDS011;33219;47.410;9.730;2022-08-19T03:35:38;18.82;;;15.65;;
47481;SDS011;33219;47.410;9.730;2022-08-19T03:38:06;20.20;;;16.60;;
47481;SDS011;33219;47.410;9.730;2022-08-19T03:40:36;18.67;;;15.48;;
47481;SDS011;33219;47.410;9.730;2022-08-19T03:43:05;20.68;;;16.77;;
47481;SDS011;33219;47.410;9.730;2022-08-19T03:45:32;18.07;;;14.80;;
47481;SDS011;33219;47.410;9.730;2022-08-19T03:48:00;16.52;;;13.72;;
47481;SDS011;33219;47.410;9.730;2022-08-19T03:50:27;16.62;;;13.20;;
47481;SDS011;33219;47.410;9.730;2022-08-19T03:52:55;16.17;;;13.20;;
47481;SDS011;33219;47.410;9.730;2022-08-19T03:55:23;16.77;;;13.43;;
47481;SDS011;33219;47.410;9.730;2022-08-19T03:57:50;17.35;;;14.45;;
47481;SDS011;33219;47.410;9.730;2022-08-19T04:00:18;17.12;;;14.63;;
47481;SDS011;33219;47.410;9.730;2022-08-19T04:02:45;21.50;;;15.90;;
47481;SDS011;33219;47.410;9.730;2022-08-19T04:05:13;19.57;;;15.38;;
47481;SDS011;33219;47.410;9.730;2022-08-19T04:07:41;18.15;;;15.50;;
47481;SDS011;33219;47.410;9.730;2022-08-19T04:10:09;18.82;;;16.10;;
47481;SDS011;33219;47.410;9.730;2022-08-19T04:12:36;18.98;;;15.70;;
47481;SDS011;33219;47.410;9.730;2022-08-19T04:15:05;20.27;;;15.70;;
47481;SDS011;33219;47.410;9.730;2022-08-19T04:17:34;18.17;;;15.48;;
47481;SDS011;33219;47.410;9.730;2022-08-19T04:20:01;18.00;;;14.65;;
47481;SDS011;33219;47.410;9.730;2022-08-19T04:22:29;16.57;;;13.98;;
47481;SDS011;33219;47.410;9.730;2022-08-19T04:24:57;17.05;;;14.83;;
47481;SDS011;33219;47.410;9.730;2022-08-19T04:27:24;18.50;;;15.45;;
47481;SDS011;33219;47.410;9.730;2022-08-19T04:29:52;18.32;;;15.75;;
47481;SDS011;33219;47.410;9.730;2022-08-19T04:32:20;19.30;;;15.63;;
47481;SDS011;33219;47.410;9.730;2022-08-19T04:34:48;18.12;;;14.55;;
47481;SDS011;33219;47.410;9.730;2022-08-19T04:37:15;16.00;;;13.68;;
47481;SDS011;33219;47.410;9.730;2022-08-19T04:39:43;19.77;;;15.30;;
47481;SDS011;33219;47.410;9.730;2022-08-19T04:42:28;15.95;;;13.50;;
47481;SDS011;33219;47.410;9.730;2022-08-19T04:45:06;18.50;;;15.08;;
47481;SDS011;33219;47.410;9.730;2022-08-19T04:47:38;16.27;;;14.15;;
47481;SDS011;33219;47.410;9.730;2022-08-19T04:50:07;15.23;;;12.90;;
47481;SDS011;33219;47.410;9.730;2022-08-19T04:52:40;14.78;;;12.47;;
47481;SDS011;33219;47.410;9.730;2022-08-19T04:55:09;15.35;;;12.90;;
47481;SDS011;33219;47.410;9.730;2022-08-19T04:57:38;16.93;;;12.85;;
47481;SDS011;33219;47.410;9.730;2022-08-19T05:00:06;16.75;;;14.10;;
47481;SDS011;33219;47.410;9.730;2022-08-19T05:02:35;18.40;;;14.55;;
47481;SDS011;33219;47.410;9.730;2022-08-19T05:05:02;18.20;;;15.50;;
47481;SDS011;33219;47.410;9.730;2022-08-19T05:07:32;17.98;;;15.08;;
47481;SDS011;33219;47.410;9.730;2022-08-19T05:10:00;18.07;;;15.32;;
47481;SDS011;33219;47.410;9.730;2022-08-19T05:12:28;19.52;;;15.78;;
47481;SDS011;33219;47.410;9.730;2022-08-19T05:14:56;21.50;;;16.42;;
47481;SDS011;33219;47.410;9.730;2022-08-19T05:17:25;20.72;;;15.70;;
47481;SDS011;33219;47.410;9.730;2022-08-19T05:19:54;18.02;;;15.28;;
47481;SDS011;33219;47.410;9.730;2022-08-19T05:22:40;19.25;;;15.32;;
47481;SDS011;33219;47.410;9.730;2022-08-19T05:25:10;19.80;;;15.80;;
47481;SDS011;33219;47.410;9.730;2022-08-19T05:27:40;18.95;;;15.68;;
47481;SDS011;33219;47.410;9.730;2022-08-19T05:30:09;23.22;;;17.82;;
47481;SDS011;33219;47.410;9.730;2022-08-19T05:32:38;27.13;;;19.65;;
47481;SDS011;33219;47.410;9.730;2022-08-19T05:35:06;32.38;;;22.37;;
47481;SDS011;33219;47.410;9.730;2022-08-19T05:37:35;36.90;;;24.15;;
47481;SDS011;33219;47.410;9.730;2022-08-19T05:40:04;41.92;;;25.82;;
47481;SDS011;33219;47.410;9.730;2022-08-19T05:42:33;47.98;;;27.40;;
47481;SDS011;33219;47.410;9.730;2022-08-19T05:45:00;46.95;;;26.62;;
47481;SDS011;33219;47.410;9.730;2022-08-19T05:47:29;46.13;;;27.85;;
47481;SDS011;33219;47.410;9.730;2022-08-19T05:49:57;46.58;;;27.42;;
47481;SDS011;33219;47.410;9.730;2022-08-19T05:52:27;41.88;;;25.48;;
47481;SDS011;33219;47.410;9.730;2022-08-19T05:54:54;45.03;;;26.30;;
47481;SDS011;33219;47.410;9.730;2022-08-19T05:57:22;35.80;;;23.47;;
47481;SDS011;33219;47.410;9.730;2022-08-19T05:59:51;34.20;;;22.98;;
47481;SDS011;33219;47.410;9.730;2022-08-19T06:02:19;37.65;;;22.80;;
47481;SDS011;33219;47.410;9.730;2022-08-19T06:04:47;41.65;;;23.98;;
47481;SDS011;33219;47.410;9.730;2022-08-19T06:07:15;37.83;;;23.60;;
47481;SDS011;33219;47.410;9.730;2022-08-19T06:09:42;41.30;;;24.37;;
47481;SDS011;33219;47.410;9.730;2022-08-19T06:12:10;34.95;;;22.75;;
47481;SDS011;33219;47.410;9.730;2022-08-19T06:14:38;32.73;;;21.33;;
47481;SDS011;33219;47.410;9.730;2022-08-19T06:17:07;35.78;;;21.45;;
47481;SDS011;33219;47.410;9.730;2022-08-19T06:19:35;30.17;;;20.17;;
47481;SDS011;33219;47.410;9.730;2022-08-19T06:22:03;32.15;;;20.37;;
47481;SDS011;33219;47.410;9.730;2022-08-19T06:24:32;36.68;;;21.75;;
47481;SDS011;33219;47.410;9.730;2022-08-19T06:27:02;34.73;;;21.35;;
47481;SDS011;33219;47.410;9.730;2022-08-19T06:29:31;26.70;;;17.48;;
47481;SDS011;33219;47.410;9.730;2022-08-19T06:32:00;21.75;;;14.58;;
47481;SDS011;33219;47.410;9.730;2022-08-19T06:34:30;20.00;;;14.93;;
47481;SDS011;33219;47.410;9.730;2022-08-19T06:37:00;19.20;;;12.98;;
47481;SDS011;33219;47.410;9.730;2022-08-19T06:39:30;22.42;;;14.00;;
47481;SDS011;33219;47.410;9.730;2022-08-19T06:47:37;24.00;;;15.50;;
47481;SDS011;33219;47.410;9.730;2022-08-19T06:50:05;23.05;;;16.52;;
47481;SDS011;33219;47.410;9.730;2022-08-19T06:52:34;23.15;;;16.40;;
47481;SDS011;33219;47.410;9.730;2022-08-19T06:55:02;24.02;;;16.80;;
47481;SDS011;33219;47.410;9.730;2022-08-19T06:57:30;26.45;;;17.40;;
47481;SDS011;33219;47.410;9.730;2022-08-19T06:59:58;24.30;;;16.50;;
47481;SDS011;33219;47.410;9.730;2022-08-19T07:02:26;27.22;;;17.67;;
47481;SDS011;33219;47.410;9.730;2022-08-19T07:04:53;30.40;;;19.17;;
47481;SDS011;33219;47.410;9.730;2022-08-19T07:07:23;25.00;;;17.90;;
47481;SDS011;33219;47.410;9.730;2022-08-19T07:15:45;29.00;;;19.62;;
47481;SDS011;33219;47.410;9.730;2022-08-19T07:18:12;25.40;;;17.62;;
47481;SDS011;33219;47.410;9.730;2022-08-19T07:20:40;22.67;;;17.35;;
47481;SDS011;33219;47.410;9.730;2022-08-19T07:31:38;22.37;;;16.77;;
47481;SDS011;33219;47.410;9.730;2022-08-19T07:34:06;23.57;;;15.75;;
47481;SDS011;33219;47.410;9.730;2022-08-19T07:36:37;23.75;;;16.30;;
47481;SDS011;33219;47.410;9.730;2022-08-19T07:39:10;21.93;;;15.78;;
47481;SDS011;33219;47.410;9.730;2022-08-19T07:46:55;21.42;;;15.90;;
47481;SDS011;33219;47.410;9.730;2022-08-19T07:49:24;25.77;;;17.73;;
47481;SDS011;33219;47.410;9.730;2022-08-19T07:51:53;25.40;;;17.12;;
47481;SDS011;33219;47.410;9.730;2022-08-19T07:54:24;25.90;;;17.80;;
47481;SDS011;33219;47.410;9.730;2022-08-19T07:59:29;26.30;;;17.07;;
47481;SDS011;33219;47.410;9.730;2022-08-19T08:01:57;22.73;;;15.32;;
47481;SDS011;33219;47.410;9.730;2022-08-19T08:34:06;47.83;;;25.17;;
47481;SDS011;33219;47.410;9.730;2022-08-19T08:36:42;44.90;;;26.62;;
47481;SDS011;33219;47.410;9.730;2022-08-19T08:39:12;47.05;;;25.40;;
47481;SDS011;33219;47.410;9.730;2022-08-19T08:41:53;44.10;;;26.20;;
47481;SDS011;33219;47.410;9.730;2022-08-19T08:44:30;49.58;;;26.25;;
47481;SDS011;33219;47.410;9.730;2022-08-19T08:47:04;47.95;;;26.90;;
47481;SDS011;33219;47.410;9.730;2022-08-19T08:49:47;43.68;;;25.15;;
47481;SDS011;33219;47.410;9.730;2022-08-19T08:52:18;46.98;;;25.68;;
47481;SDS011;33219;47.410;9.730;2022-08-19T08:54:53;46.75;;;26.50;;
47481;SDS011;33219;47.410;9.730;2022-08-19T09:00:16;51.55;;;28.47;;
47481;SDS011;33219;47.410;9.730;2022-08-19T09:02:46;48.40;;;26.93;;
47481;SDS011;33219;47.410;9.730;2022-08-19T09:05:14;43.55;;;25.55;;
47481;SDS011;33219;47.410;9.730;2022-08-19T09:10:32;47.73;;;27.17;;
47481;SDS011;33219;47.410;9.730;2022-08-19T09:13:45;47.33;;;27.45;;
47481;SDS011;33219;47.410;9.730;2022-08-19T09:15:39;45.15;;;26.77;;
47481;SDS011;33219;47.410;9.730;2022-08-19T09:18:07;45.17;;;27.30;;
47481;SDS011;33219;47.410;9.730;2022-08-19T09:20:35;44.30;;;28.02;;
47481;SDS011;33219;47.410;9.730;2022-08-19T09:23:03;42.73;;;26.77;;
47481;SDS011;33219;47.410;9.730;2022-08-19T09:25:31;42.23;;;26.33;;
47481;SDS011;33219;47.410;9.730;2022-08-19T09:28:00;31.52;;;21.90;;
47481;SDS011;33219;47.410;9.730;2022-08-19T09:30:34;36.58;;;23.35;;
47481;SDS011;33219;47.410;9.730;2022-08-19T09:33:02;35.05;;;23.85;;
47481;SDS011;33219;47.410;9.730;2022-08-19T09:35:30;38.55;;;23.67;;
47481;SDS011;33219;47.410;9.730;2022-08-19T09:37:58;32.83;;;23.12;;
47481;SDS011;33219;47.410;9.730;2022-08-19T09:40:29;32.35;;;22.45;;
47481;SDS011;33219;47.410;9.730;2022-08-19T09:42:57;31.27;;;21.77;;
47481;SDS011;33219;47.410;9.730;2022-08-19T09:45:27;33.35;;;22.82;;
47481;SDS011;33219;47.410;9.730;2022-08-19T09:47:55;32.13;;;21.40;;
47481;SDS011;33219;47.410;9.730;2022-08-19T09:50:23;32.73;;;22.73;;
47481;SDS011;33219;47.410;9.730;2022-08-19T09:52:51;32.60;;;22.87;;
47481;SDS011;33219;47.410;9.730;2022-08-19T09:55:19;35.28;;;23.32;;
47481;SDS011;33219;47.410;9.730;2022-08-19T10:17:36;35.73;;;24.72;;
47481;SDS011;33219;47.410;9.730;2022-08-19T10:20:04;39.40;;;25.85;;
47481;SDS011;33219;47.410;9.730;2022-08-19T10:22:32;39.95;;;25.08;;
47481;SDS011;33219;47.410;9.730;2022-08-19T10:25:01;38.08;;;23.67;;
47481;SDS011;33219;47.410;9.730;2022-08-19T10:27:29;38.55;;;24.65;;
47481;SDS011;33219;47.410;9.730;2022-08-19T10:29:57;32.98;;;21.87;;
47481;SDS011;33219;47.410;9.730;2022-08-19T10:32:24;31.37;;;21.23;;
47481;SDS011;33219;47.410;9.730;2022-08-19T10:34:53;30.62;;;21.45;;
47481;SDS011;33219;47.410;9.730;2022-08-19T10:37:22;31.30;;;20.50;;
47481;SDS011;33219;47.410;9.730;2022-08-19T10:39:49;32.13;;;21.37;;
47481;SDS011;33219;47.410;9.730;2022-08-19T10:44:48;29.77;;;20.20;;
47481;SDS011;33219;47.410;9.730;2022-08-19T10:47:16;27.37;;;17.57;;
47481;SDS011;33219;47.410;9.730;2022-08-19T10:49:44;23.92;;;16.37;;
47481;SDS011;33219;47.410;9.730;2022-08-19T10:52:29;18.80;;;12.55;;
47481;SDS011;33219;47.410;9.730;2022-08-19T10:55:01;16.85;;;11.20;;
47481;SDS011;33219;47.410;9.730;2022-08-19T10:57:47;17.62;;;10.82;;
47481;SDS011;33219;47.410;9.730;2022-08-19T11:00:16;17.42;;;10.30;;
47481;SDS011;33219;47.410;9.730;2022-08-19T11:02:44;15.38;;;10.05;;
47481;SDS011;33219;47.410;9.730;2022-08-19T11:05:12;13.50;;;10.05;;
47481;SDS011;33219;47.410;9.730;2022-08-19T11:07:40;17.90;;;9.98;;
47481;SDS011;33219;47.410;9.730;2022-08-19T11:10:11;22.77;;;9.83;;
47481;SDS011;33219;47.410;9.730;2022-08-19T11:12:39;13.10;;;7.53;;
47481;SDS011;33219;47.410;9.730;2022-08-19T11:15:08;11.05;;;7.30;;
47481;SDS011;33219;47.410;9.730;2022-08-19T11:17:39;11.00;;;6.55;;
47481;SDS011;33219;47.410;9.730;2022-08-19T11:20:10;13.78;;;5.92;;
47481;SDS011;33219;47.410;9.730;2022-08-19T11:22:38;11.28;;;6.40;;
47481;SDS011;33219;47.410;9.730;2022-08-19T11:25:07;8.78;;;4.80;;
47481;SDS011;33219;47.410;9.730;2022-08-19T11:27:40;13.88;;;5.17;;
47481;SDS011;33219;47.410;9.730;2022-08-19T11:30:09;10.50;;;4.15;;
47481;SDS011;33219;47.410;9.730;2022-08-19T11:32:38;10.23;;;4.33;;
47481;SDS011;33219;47.410;9.730;2022-08-19T11:35:06;10.43;;;4.17;;
47481;SDS011;33219;47.410;9.730;2022-08-19T11:37:34;8.83;;;4.60;;
47481;SDS011;33219;47.410;9.730;2022-08-19T11:40:04;7.50;;;4.10;;
47481;SDS011;33219;47.410;9.730;2022-08-19T11:42:33;11.10;;;3.17;;
47481;SDS011;33219;47.410;9.730;2022-08-19T11:45:18;7.85;;;2.80;;
47481;SDS011;33219;47.410;9.730;2022-08-19T11:47:46;10.85;;;2.80;;
47481;SDS011;33219;47.410;9.730;2022-08-19T11:50:15;7.42;;;2.37;;
47481;SDS011;33219;47.410;9.730;2022-08-19T11:52:43;6.58;;;2.47;;
47481;SDS011;33219;47.410;9.730;2022-08-19T11:55:13;7.00;;;2.60;;
47481;SDS011;33219;47.410;9.730;2022-08-19T11:57:41;8.18;;;2.87;;
47481;SDS011;33219;47.410;9.730;2022-08-19T12:00:09;6.53;;;3.02;;
47481;SDS011;33219;47.410;9.730;2022-08-19T12:02:39;5.20;;;3.40;;
47481;SDS011;33219;47.410;9.730;2022-08-19T12:05:08;4.15;;;2.60;;
47481;SDS011;33219;47.410;9.730;2022-08-19T12:07:36;5.03;;;2.87;;
47481;SDS011;33219;47.410;9.730;2022-08-19T12:10:03;11.18;;;3.58;;
47481;SDS011;33219;47.410;9.730;2022-08-19T12:12:31;8.85;;;3.40;;
47481;SDS011;33219;47.410;9.730;2022-08-19T12:14:59;9.18;;;3.85;;
47481;SDS011;33219;47.410;9.730;2022-08-19T12:17:26;5.50;;;3.60;;
47481;SDS011;33219;47.410;9.730;2022-08-19T12:19:54;6.42;;;3.62;;
47481;SDS011;33219;47.410;9.730;2022-08-19T12:22:22;5.83;;;3.37;;
47481;SDS011;33219;47.410;9.730;2022-08-19T12:24:49;5.50;;;3.22;;
47481;SDS011;33219;47.410;9.730;2022-08-19T12:27:18;5.20;;;3.20;;
47481;SDS011;33219;47.410;9.730;2022-08-19T12:29:46;5.53;;;3.00;;
47481;SDS011;33219;47.410;9.730;2022-08-19T12:32:14;6.33;;;3.10;;
47481;SDS011;33219;47.410;9.730;2022-08-19T12:34:42;4.30;;;2.60;;
47481;SDS011;33219;47.410;9.730;2022-08-19T12:37:11;4.37;;;2.80;;
47481;SDS011;33219;47.410;9.730;2022-08-19T12:39:40;4.10;;;2.72;;
47481;SDS011;33219;47.410;9.730;2022-08-19T12:42:09;5.72;;;2.70;;
47481;SDS011;33219;47.410;9.730;2022-08-19T12:44:38;6.17;;;3.30;;
47481;SDS011;33219;47.410;9.730;2022-08-19T12:47:07;4.28;;;2.70;;
47481;SDS011;33219;47.410;9.730;2022-08-19T12:49:37;7.15;;;2.42;;
47481;SDS011;33219;47.410;9.730;2022-08-19T12:52:05;7.00;;;2.22;;
47481;SDS011;33219;47.410;9.730;2022-08-19T12:54:39;6.55;;;1.95;;
47481;SDS011;33219;47.410;9.730;2022-08-19T12:57:07;5.62;;;2.47;;
47481;SDS011;33219;47.410;9.730;2022-08-19T12:59:36;4.45;;;2.50;;
47481;SDS011;33219;47.410;9.730;2022-08-19T13:02:05;4.83;;;2.25;;
47481;SDS011;33219;47.410;9.730;2022-08-19T13:04:34;4.90;;;2.58;;
47481;SDS011;33219;47.410;9.730;2022-08-19T13:07:03;5.35;;;2.20;;
47481;SDS011;33219;47.410;9.730;2022-08-19T13:09:31;4.20;;;2.37;;
47481;SDS011;33219;47.410;9.730;2022-08-19T13:11:58;2.27;;;1.60;;
47481;SDS011;33219;47.410;9.730;2022-08-19T13:14:27;3.20;;;1.90;;
47481;SDS011;33219;47.410;9.730;2022-08-19T13:16:57;3.60;;;2.08;;
47481;SDS011;33219;47.410;9.730;2022-08-19T13:19:24;3.40;;;2.02;;
47481;SDS011;33219;47.410;9.730;2022-08-19T13:21:52;3.47;;;1.60;;
47481;SDS011;33219;47.410;9.730;2022-08-19T13:24:21;3.83;;;2.17;;
47481;SDS011;33219;47.410;9.730;2022-08-19T13:26:48;3.85;;;2.50;;
47481;SDS011;33219;47.410;9.730;2022-08-19T13:29:16;4.78;;;2.30;;
47481;SDS011;33219;47.410;9.730;2022-08-19T13:32:01;3.27;;;2.40;;
47481;SDS011;33219;47.410;9.730;2022-08-19T13:34:47;4.53;;;2.67;;
47481;SDS011;33219;47.410;9.730;2022-08-19T13:37:15;4.90;;;2.80;;
47481;SDS011;33219;47.410;9.730;2022-08-19T13:39:44;5.78;;;2.87;;
47481;SDS011;33219;47.410;9.730;2022-08-19T13:42:12;4.47;;;2.30;;
47481;SDS011;33219;47.410;9.730;2022-08-19T13:44:40;6.62;;;3.10;;
47481;SDS011;33219;47.410;9.730;2022-08-19T13:47:07;6.28;;;3.60;;
47481;SDS011;33219;47.410;9.730;2022-08-19T13:49:37;7.53;;;3.85;;
47481;SDS011;33219;47.410;9.730;2022-08-19T13:52:04;8.23;;;4.62;;
47481;SDS011;33219;47.410;9.730;2022-08-19T13:54:32;6.28;;;4.03;;
47481;SDS011;33219;47.410;9.730;2022-08-19T13:57:00;6.55;;;4.20;;
47481;SDS011;33219;47.410;9.730;2022-08-19T13:59:27;6.03;;;3.85;;
47481;SDS011;33219;47.410;9.730;2022-08-19T14:01:58;8.45;;;5.00;;
47481;SDS011;33219;47.410;9.730;2022-08-19T14:04:26;8.60;;;5.05;;
47481;SDS011;33219;47.410;9.730;2022-08-19T14:06:54;8.95;;;5.70;;
47481;SDS011;33219;47.410;9.730;2022-08-19T14:09:22;8.30;;;6.08;;
47481;SDS011;33219;47.410;9.730;2022-08-19T14:11:49;7.85;;;5.83;;
47481;SDS011;33219;47.410;9.730;2022-08-19T14:14:17;8.25;;;5.33;;
47481;SDS011;33219;47.410;9.730;2022-08-19T14:16:44;7.37;;;5.08;;
47481;SDS011;33219;47.410;9.730;2022-08-19T14:19:12;7.60;;;4.62;;
47481;SDS011;33219;47.410;9.730;2022-08-19T14:21:40;6.05;;;4.15;;
47481;SDS011;33219;47.410;9.730;2022-08-19T14:24:08;7.92;;;4.75;;
47481;SDS011;33219;47.410;9.730;2022-08-19T14:26:35;7.58;;;5.53;;
47481;SDS011;33219;47.410;9.730;2022-08-19T14:29:04;9.38;;;6.92;;
47481;SDS011;33219;47.410;9.730;2022-08-19T14:31:31;9.35;;;6.55;;
47481;SDS011;33219;47.410;9.730;2022-08-19T14:33:59;9.13;;;6.85;;
47481;SDS011;33219;47.410;9.730;2022-08-19T14:36:26;10.45;;;6.95;;
47481;SDS011;33219;47.410;9.730;2022-08-19T14:38:54;10.82;;;5.90;;
47481;SDS011;33219;47.410;9.730;2022-08-19T14:41:23;8.58;;;6.20;;
47481;SDS011;33219;47.410;9.730;2022-08-19T14:43:52;8.60;;;6.35;;
47481;SDS011;33219;47.410;9.730;2022-08-19T14:46:21;10.10;;;7.45;;
47481;SDS011;33219;47.410;9.730;2022-08-19T14:48:51;9.95;;;7.60;;
47481;SDS011;33219;47.410;9.730;2022-08-19T14:51:20;12.58;;;9.18;;
47481;SDS011;33219;47.410;9.730;2022-08-19T14:53:48;11.45;;;8.68;;
47481;SDS011;33219;47.410;9.730;2022-08-19T14:56:20;12.85;;;8.43;;
47481;SDS011;33219;47.410;9.730;2022-08-19T14:58:48;14.78;;;10.58;;
47481;SDS011;33219;47.410;9.730;2022-08-19T15:01:19;15.53;;;11.35;;
47481;SDS011;33219;47.410;9.730;2022-08-19T15:03:49;20.77;;;13.25;;
47481;SDS011;33219;47.410;9.730;2022-08-19T15:06:19;15.50;;;11.28;;
47481;SDS011;33219;47.410;9.730;2022-08-19T15:08:48;15.32;;;10.98;;
47481;SDS011;33219;47.410;9.730;2022-08-19T15:11:18;21.45;;;12.25;;
47481;SDS011;33219;47.410;9.730;2022-08-19T15:13:48;14.20;;;10.75;;
47481;SDS011;33219;47.410;9.730;2022-08-19T15:16:17;13.83;;;10.00;;
47481;SDS011;33219;47.410;9.730;2022-08-19T15:18:46;16.07;;;11.60;;
47481;SDS011;33219;47.410;9.730;2022-08-19T15:21:16;17.67;;;11.78;;
47481;SDS011;33219;47.410;9.730;2022-08-19T15:23:45;18.42;;;13.08;;
47481;SDS011;33219;47.410;9.730;2022-08-19T15:26:15;15.70;;;11.45;;
47481;SDS011;33219;47.410;9.730;2022-08-19T15:28:44;14.63;;;10.55;;
47481;SDS011;33219;47.410;9.730;2022-08-19T15:31:12;13.15;;;10.03;;
47481;SDS011;33219;47.410;9.730;2022-08-19T15:33:41;14.00;;;10.32;;
47481;SDS011;33219;47.410;9.730;2022-08-19T15:36:09;14.23;;;10.03;;
47481;SDS011;33219;47.410;9.730;2022-08-19T15:38:41;19.05;;;11.40;;
47481;SDS011;33219;47.410;9.730;2022-08-19T15:41:19;15.30;;;9.55;;
47481;SDS011;33219;47.410;9.730;2022-08-19T15:46:25;20.57;;;13.53;;
47481;SDS011;33219;47.410;9.730;2022-08-19T15:48:56;17.42;;;13.05;;
47481;SDS011;33219;47.410;9.730;2022-08-19T15:51:25;20.43;;;13.08;;
47481;SDS011;33219;47.410;9.730;2022-08-19T15:53:55;20.95;;;15.28;;
47481;SDS011;33219;47.410;9.730;2022-08-19T15:56:24;20.82;;;14.98;;
47481;SDS011;33219;47.410;9.730;2022-08-19T15:58:54;21.23;;;15.63;;
47481;SDS011;33219;47.410;9.730;2022-08-19T16:01:39;23.87;;;17.35;;
47481;SDS011;33219;47.410;9.730;2022-08-19T16:04:25;23.12;;;16.87;;
47481;SDS011;33219;47.410;9.730;2022-08-19T16:07:10;21.45;;;15.43;;
47481;SDS011;33219;47.410;9.730;2022-08-19T16:09:38;20.12;;;15.40;;
47481;SDS011;33219;47.410;9.730;2022-08-19T16:12:05;20.48;;;15.80;;